Time;durP1;ratioP1;P1;durP2;ratioP2;P2;SDS_P1;SDS_P2;PMS_P1;PMS_P2;Temp;Humidity;BMP_temperature;BMP_pressure;BME280_temperature;BME280_humidity;BME280_pressure;Samples;Min_cycle;Max_cycle;Signal;HPM_P1;HPM_P2
2022/06/01 00:00:36;;;;;;;1.10;0.65;;;14.10;99.90;;;;;;4421632;32;20065;-68
2022/06/01 00:03:01;;;;;;;0.40;0.40;;;14.00;99.90;;;;;;4443205;32;20068;-69
2022/06/01 00:05:27;;;;;;;0.50;0.50;;;14.10;99.90;;;;;;4458006;32;20428;-69
2022/06/01 00:07:52;;;;;;;0.50;0.50;;;14.10;99.90;;;;;;4443762;32;20120;-69
2022/06/01 00:10:18;;;;;;;0.57;0.57;;;14.00;99.90;;;;;;4446983;32;20528;-68
2022/06/01 00:12:44;;;;;;;1.40;0.65;;;14.10;99.90;;;;;;4449273;32;20110;-69
2022/06/01 00:15:12;;;;;;;0.30;0.30;;;14.10;99.90;;;;;;4447353;32;20073;-69
2022/06/01 00:17:37;;;;;;;0.47;0.45;;;14.10;99.90;;;;;;4444828;32;20119;-69
2022/06/01 00:20:04;;;;;;;0.98;0.60;;;14.20;99.90;;;;;;4436103;32;20558;-69
2022/06/01 00:22:29;;;;;;;0.57;0.57;;;14.20;99.90;;;;;;4434416;32;20421;-69
2022/06/01 00:24:55;;;;;;;0.70;0.70;;;14.10;99.90;;;;;;4445137;32;20130;-68
2022/06/01 00:27:21;;;;;;;0.40;0.40;;;14.10;99.90;;;;;;4443293;32;20064;-69
2022/06/01 00:29:46;;;;;;;0.30;0.30;;;14.10;99.90;;;;;;4426465;32;20561;-69
2022/06/01 00:32:14;;;;;;;0.50;0.50;;;14.00;99.90;;;;;;4434360;32;20127;-68
2022/06/01 00:34:41;;;;;;;0.50;0.50;;;14.00;99.90;;;;;;4443044;32;20412;-69
2022/06/01 00:37:08;;;;;;;0.45;0.45;;;14.00;99.90;;;;;;4439310;32;20125;-69
2022/06/01 00:39:34;;;;;;;0.50;0.50;;;14.00;99.90;;;;;;4432590;32;20065;-69
2022/06/01 00:42:14;;;;;;;0.47;0.47;;;14.00;99.90;;;;;;4438388;32;20508;-69
2022/06/01 00:44:40;;;;;;;2.72;1.50;;;14.10;99.90;;;;;;4447264;32;20505;-69
2022/06/01 00:47:06;;;;;;;0.30;0.30;;;14.00;99.90;;;;;;4443890;32;20094;-69
2022/06/01 00:49:33;;;;;;;1.27;1.17;;;14.00;99.90;;;;;;4440633;32;20060;-69
2022/06/01 00:52:00;;;;;;;20.73;0.60;;;14.00;99.90;;;;;;4439320;32;20121;-69
2022/06/01 00:54:26;;;;;;;0.50;0.50;;;13.90;99.90;;;;;;4444456;32;20512;-69
2022/06/01 00:57:00;;;;;;;0.43;0.40;;;14.00;99.90;;;;;;4455840;32;20068;-69
2022/06/01 00:59:30;;;;;;;0.40;0.40;;;14.00;99.90;;;;;;4425742;32;20053;-69
2022/06/01 01:01:56;;;;;;;3.10;1.80;;;13.90;99.90;;;;;;4427284;32;20062;-69
2022/06/01 01:04:23;;;;;;;0.47;0.47;;;14.00;99.90;;;;;;4446871;32;20085;-69
2022/06/01 01:06:49;;;;;;;0.47;0.47;;;14.00;99.90;;;;;;4447511;32;20516;-69
2022/06/01 01:09:15;;;;;;;0.30;0.30;;;13.90;99.90;;;;;;4442747;32;20053;-69
2022/06/01 01:11:52;;;;;;;0.70;0.70;;;13.80;99.90;;;;;;4450122;32;20118;-70
2022/06/01 01:14:21;;;;;;;0.40;0.40;;;13.70;99.90;;;;;;4447184;32;20084;-69
2022/06/01 01:16:48;;;;;;;0.62;0.60;;;13.80;99.90;;;;;;4441341;32;20097;-69
2022/06/01 01:19:25;;;;;;;10.40;0.50;;;13.70;99.90;;;;;;4439263;32;20437;-69
2022/06/01 01:22:14;;;;;;;0.50;0.50;;;13.70;99.90;;;;;;4421167;32;20061;-69
2022/06/01 01:24:48;;;;;;;0.30;0.30;;;13.80;99.90;;;;;;4443053;32;20512;-69
2022/06/01 01:27:14;;;;;;;0.45;0.45;;;13.80;99.90;;;;;;4435323;32;20596;-69
2022/06/01 01:29:42;;;;;;;0.77;0.77;;;13.80;99.90;;;;;;4422509;32;20159;-69
2022/06/01 01:32:10;;;;;;;0.50;0.50;;;13.80;99.90;;;;;;4428883;32;84852;-69
2022/06/01 01:34:38;;;;;;;1.77;1.12;;;13.80;99.90;;;;;;4448782;32;20102;-69
2022/06/01 01:37:10;;;;;;;0.43;0.43;;;13.80;99.90;;;;;;4448598;32;20069;-69
2022/06/01 01:39:37;;;;;;;0.50;0.50;;;13.70;99.90;;;;;;4437548;32;20065;-68
2022/06/01 01:42:04;;;;;;;0.52;0.52;;;13.70;99.90;;;;;;4442891;32;20517;-67
2022/06/01 01:44:41;;;;;;;0.40;0.40;;;13.70;99.90;;;;;;4439088;32;20080;-69
2022/06/01 01:47:07;;;;;;;0.25;0.25;;;13.60;99.90;;;;;;4440965;32;20395;-69
2022/06/01 01:49:35;;;;;;;0.32;0.32;;;13.70;99.90;;;;;;4429338;32;20223;-69
2022/06/01 01:52:04;;;;;;;2.90;0.60;;;13.70;99.90;;;;;;4437201;32;20061;-69
2022/06/01 01:54:55;;;;;;;2.55;0.95;;;13.70;99.90;;;;;;4435400;32;20068;-69
2022/06/01 01:58:00;;;;;;;0.30;0.30;;;13.70;99.90;;;;;;4437898;32;20123;-69
2022/06/01 02:00:34;;;;;;;0.43;0.43;;;13.60;99.90;;;;;;4425317;32;20094;-69
2022/06/01 02:03:39;;;;;;;0.68;0.62;;;13.70;99.90;;;;;;4434200;32;20184;-69
2022/06/01 02:06:14;;;;;;;0.50;0.50;;;13.70;99.90;;;;;;4430544;32;20061;-69
2022/06/01 02:08:46;;;;;;;0.73;0.73;;;13.70;99.90;;;;;;4445229;32;20065;-69
2022/06/01 02:12:48;;;;;;;0.40;0.40;;;13.70;99.90;;;;;;4445843;32;20061;-69
2022/06/01 02:14:06;;;;;;;0.40;0.40;;;13.80;99.90;;;;;;4441488;32;20137;-69
2022/06/01 02:16:39;;;;;;;0.52;0.52;;;13.70;99.90;;;;;;4442982;32;20445;-69
2022/06/01 02:19:09;;;;;;;0.60;0.60;;;13.70;99.90;;;;;;4447479;32;20128;-70
2022/06/01 02:21:35;;;;;;;0.50;0.50;;;13.70;99.90;;;;;;4427242;32;20069;-70
2022/06/01 02:24:00;;;;;;;0.32;0.32;;;13.60;99.90;;;;;;4441246;32;20085;-69
2022/06/01 02:26:28;;;;;;;0.40;0.40;;;13.60;99.90;;;;;;4447651;32;20134;-69
2022/06/01 02:29:00;;;;;;;0.40;0.40;;;13.70;99.90;;;;;;4438729;32;20065;-69
2022/06/01 02:31:28;;;;;;;0.40;0.40;;;13.70;99.90;;;;;;4424705;32;20069;-70
2022/06/01 02:33:55;;;;;;;0.47;0.47;;;13.70;99.90;;;;;;4447479;32;20053;-70
2022/06/01 02:36:23;;;;;;;8.73;1.00;;;13.60;99.90;;;;;;4435235;32;20535;-70
2022/06/01 02:38:51;;;;;;;0.40;0.40;;;13.60;99.90;;;;;;4456506;32;20107;-69
2022/06/01 02:42:31;;;;;;;0.60;0.45;;;13.60;99.90;;;;;;4453709;32;20508;-69
2022/06/01 02:44:02;;;;;;;0.45;0.45;;;13.50;99.90;;;;;;4443807;32;20125;-70
2022/06/01 02:46:28;;;;;;;0.50;0.50;;;13.60;99.90;;;;;;4449295;32;20504;-69
2022/06/01 02:48:55;;;;;;;0.30;0.30;;;13.50;99.90;;;;;;4446994;32;20192;-70
2022/06/01 02:51:21;;;;;;;2.20;0.82;;;13.50;99.90;;;;;;4435063;32;20383;-69
2022/06/01 02:53:48;;;;;;;0.52;0.52;;;13.50;99.90;;;;;;4451604;32;20564;-69
2022/06/01 02:56:14;;;;;;;0.20;0.20;;;13.60;99.90;;;;;;4460123;32;20064;-69
2022/06/01 02:58:40;;;;;;;0.40;0.40;;;13.60;99.90;;;;;;4441404;32;20864;-70
2022/06/01 03:01:06;;;;;;;1.95;0.80;;;13.50;99.90;;;;;;4429059;32;20065;-70
2022/06/01 03:03:33;;;;;;;0.55;0.55;;;13.50;99.90;;;;;;4446491;32;20509;-70
2022/06/01 03:05:59;;;;;;;0.47;0.47;;;13.40;99.90;;;;;;4444744;32;20061;-70
2022/06/01 03:08:25;;;;;;;0.52;0.52;;;13.30;99.90;;;;;;4443143;32;20084;-69
2022/06/01 03:10:51;;;;;;;0.55;0.55;;;13.40;99.90;;;;;;4449583;32;20077;-69
2022/06/01 03:13:16;;;;;;;0.68;0.50;;;13.40;99.90;;;;;;4440846;32;20508;-69
2022/06/01 03:15:42;;;;;;;0.50;0.50;;;13.40;99.90;;;;;;4451971;32;20058;-69
2022/06/01 03:18:07;;;;;;;0.82;0.82;;;13.40;99.90;;;;;;4448949;32;20072;-70
2022/06/01 03:20:34;;;;;;;0.43;0.43;;;13.50;99.90;;;;;;4433533;32;20073;-70
2022/06/01 03:23:00;;;;;;;0.60;0.60;;;13.40;99.90;;;;;;4434549;32;20117;-70
2022/06/01 03:25:27;;;;;;;0.40;0.40;;;13.40;99.90;;;;;;4444008;32;20056;-70
2022/06/01 03:27:57;;;;;;;0.45;0.45;;;13.40;99.90;;;;;;4437356;32;20080;-70
2022/06/01 03:30:23;;;;;;;0.88;0.75;;;13.40;99.90;;;;;;4416060;32;20539;-70
2022/06/01 03:32:49;;;;;;;1.02;0.57;;;13.30;99.90;;;;;;4439691;32;20064;-70
2022/06/01 03:35:21;;;;;;;0.80;0.57;;;13.30;99.90;;;;;;4447440;32;20076;-69
2022/06/01 03:37:48;;;;;;;0.50;0.50;;;13.30;99.90;;;;;;4450383;32;20068;-69
2022/06/01 03:40:14;;;;;;;0.70;0.70;;;13.40;99.90;;;;;;4454498;32;20081;-70
2022/06/01 03:42:40;;;;;;;3.10;0.95;;;13.40;99.90;;;;;;4445369;32;20111;-68
2022/06/01 03:46:06;;;;;;;0.60;0.60;;;13.40;99.90;;;;;;4446047;32;20111;-69
2022/06/01 03:47:52;;;;;;;0.45;0.45;;;13.40;99.90;;;;;;4435787;32;20077;-68
2022/06/01 03:50:17;;;;;;;0.65;0.65;;;13.40;99.90;;;;;;4434175;32;20065;-69
2022/06/01 03:52:45;;;;;;;0.43;0.43;;;13.40;99.90;;;;;;4448660;32;20837;-69
2022/06/01 03:55:12;;;;;;;1.65;0.80;;;13.30;99.90;;;;;;4455257;32;20142;-69
2022/06/01 03:57:38;;;;;;;0.60;0.55;;;13.20;99.90;;;;;;4435316;32;20161;-69
2022/06/01 04:00:06;;;;;;;0.50;0.50;;;13.20;99.90;;;;;;4425718;32;20055;-69
2022/06/01 04:02:31;;;;;;;0.70;0.70;;;13.20;99.90;;;;;;4436375;32;20069;-69
2022/06/01 04:04:58;;;;;;;0.57;0.57;;;13.00;99.90;;;;;;4436888;32;20113;-69
2022/06/01 04:07:24;;;;;;;0.80;0.45;;;13.00;99.90;;;;;;4456208;32;20080;-69
2022/06/01 04:09:50;;;;;;;1.70;0.75;;;12.90;99.90;;;;;;4447045;32;20516;-69
2022/06/01 04:12:15;;;;;;;7.60;0.80;;;12.80;99.90;;;;;;4442487;32;20090;-69
2022/06/01 04:14:41;;;;;;;1.35;0.60;;;12.90;99.90;;;;;;4440447;32;20101;-69
2022/06/01 04:17:06;;;;;;;0.50;0.47;;;13.00;99.90;;;;;;4440121;32;20072;-68
2022/06/01 04:19:32;;;;;;;0.50;0.50;;;13.00;99.90;;;;;;4445946;32;20430;-68
2022/06/01 04:21:59;;;;;;;0.47;0.47;;;13.10;99.90;;;;;;4419680;32;20066;-68
2022/06/01 04:24:29;;;;;;;0.40;0.40;;;13.10;99.90;;;;;;4397356;32;20062;-70
2022/06/01 04:26:55;;;;;;;7.53;1.10;;;13.20;99.90;;;;;;4408372;32;20086;-70
2022/06/01 04:29:21;;;;;;;2.90;1.33;;;13.20;99.90;;;;;;4386242;32;20319;-70
2022/06/01 04:31:47;;;;;;;0.70;0.70;;;13.20;99.90;;;;;;4385382;32;20647;-70
2022/06/01 04:34:13;;;;;;;0.75;0.75;;;13.20;99.90;;;;;;4405058;32;20085;-70
2022/06/01 04:36:38;;;;;;;1.02;0.75;;;13.10;99.90;;;;;;4451200;32;20144;-69
2022/06/01 04:39:06;;;;;;;1.08;0.82;;;13.20;99.90;;;;;;4443218;32;20056;-68
2022/06/01 04:41:32;;;;;;;1.23;0.77;;;13.10;99.90;;;;;;4446879;32;20148;-68
2022/06/01 04:43:57;;;;;;;0.52;0.52;;;13.00;99.90;;;;;;4442382;32;20360;-69
2022/06/01 04:46:23;;;;;;;1.48;0.62;;;13.00;99.90;;;;;;4442752;32;20081;-68
2022/06/01 04:48:48;;;;;;;1.20;0.73;;;13.10;99.90;;;;;;4450531;32;20053;-68
2022/06/01 04:51:15;;;;;;;0.60;0.60;;;13.10;99.90;;;;;;4429839;32;20090;-68
2022/06/01 04:53:43;;;;;;;0.70;0.60;;;13.20;99.90;;;;;;4410110;32;20057;-69
2022/06/01 04:56:10;;;;;;;0.60;0.60;;;13.20;99.90;;;;;;4419590;32;20056;-69
2022/06/01 04:58:37;;;;;;;1.27;0.82;;;13.20;99.90;;;;;;4439190;32;20551;-69
2022/06/01 05:01:03;;;;;;;0.98;0.90;;;13.30;99.90;;;;;;4418398;32;20061;-69
2022/06/01 05:03:29;;;;;;;0.43;0.43;;;13.30;99.90;;;;;;4415252;32;20601;-69
2022/06/01 05:05:55;;;;;;;1.65;0.65;;;13.30;99.90;;;;;;4404500;32;20589;-69
2022/06/01 05:08:20;;;;;;;0.40;0.40;;;13.30;99.90;;;;;;4397682;32;20147;-70
2022/06/01 05:10:46;;;;;;;0.40;0.40;;;13.30;99.90;;;;;;4389052;32;20093;-70
2022/06/01 05:13:12;;;;;;;2.08;1.05;;;13.30;99.90;;;;;;4383909;32;20065;-69
2022/06/01 05:15:46;;;;;;;0.52;0.52;;;13.30;99.90;;;;;;4402499;32;20796;-69
2022/06/01 05:18:12;;;;;;;0.60;0.57;;;13.40;99.90;;;;;;4377222;32;20149;-69
2022/06/01 05:20:38;;;;;;;1.20;0.90;;;13.40;99.90;;;;;;4346257;32;20139;-69
2022/06/01 05:23:04;;;;;;;0.30;0.30;;;13.50;99.90;;;;;;4356262;32;20583;-69
2022/06/01 05:25:30;;;;;;;0.60;0.60;;;13.40;99.90;;;;;;4342716;32;20230;-69
2022/06/01 05:27:55;;;;;;;0.95;0.50;;;13.50;99.90;;;;;;4340131;32;20223;-69
2022/06/01 05:30:21;;;;;;;0.50;0.50;;;13.50;99.90;;;;;;4323473;32;20093;-69
2022/06/01 05:32:47;;;;;;;1.15;1.00;;;13.40;99.90;;;;;;4362730;32;21078;-69
2022/06/01 05:35:12;;;;;;;0.50;0.50;;;13.40;99.90;;;;;;4344515;32;20483;-69
2022/06/01 05:37:38;;;;;;;4.95;1.00;;;13.30;99.90;;;;;;4360420;32;20093;-69
2022/06/01 05:40:07;;;;;;;0.30;0.30;;;13.20;99.90;;;;;;4350551;32;20502;-70
2022/06/01 05:42:33;;;;;;;0.68;0.62;;;13.30;99.90;;;;;;4371785;32;20340;-69
2022/06/01 05:44:58;;;;;;;0.50;0.50;;;13.20;99.90;;;;;;4367960;32;20093;-69
2022/06/01 05:47:24;;;;;;;2.47;0.45;;;13.30;99.90;;;;;;4401332;32;20152;-70
2022/06/01 05:49:49;;;;;;;0.30;0.30;;;13.30;99.90;;;;;;4377657;32;20593;-68
2022/06/01 05:52:18;;;;;;;0.50;0.50;;;13.40;99.90;;;;;;4380841;32;20251;-69
2022/06/01 05:54:44;;;;;;;0.75;0.62;;;13.60;99.90;;;;;;4402474;32;20160;-69
2022/06/01 05:57:11;;;;;;;0.50;0.50;;;13.70;99.90;;;;;;4394660;32;20486;-70
2022/06/01 05:59:36;;;;;;;0.37;0.37;;;13.80;99.90;;;;;;4390061;32;20267;-69
2022/06/01 06:02:02;;;;;;;0.17;0.17;;;13.80;99.90;;;;;;4366793;32;20551;-69
2022/06/01 06:04:28;;;;;;;2.72;0.65;;;13.80;99.90;;;;;;4355936;32;20281;-69
2022/06/01 06:06:53;;;;;;;0.30;0.30;;;14.00;99.90;;;;;;4369589;32;20758;-69
2022/06/01 06:09:24;;;;;;;0.30;0.30;;;14.10;99.90;;;;;;4388293;32;22398;-69
2022/06/01 06:11:50;;;;;;;;;;;14.20;99.90;;;;;;4391431;32;21212;-72
2022/06/01 06:14:16;;;;;;;0.30;0.30;;;14.30;99.90;;;;;;4393825;32;20080;-69
2022/06/01 06:16:43;;;;;;;0.40;0.40;;;14.40;99.90;;;;;;4397826;32;20190;-69
2022/06/01 06:19:09;;;;;;;0.52;0.50;;;14.60;99.90;;;;;;4376832;32;20611;-69
2022/06/01 06:21:35;;;;;;;1.95;0.60;;;14.60;99.90;;;;;;4372924;32;20396;-69
2022/06/01 06:24:04;;;;;;;0.47;0.47;;;14.70;99.90;;;;;;4384540;32;20105;-69
2022/06/01 06:26:30;;;;;;;0.50;0.50;;;14.70;99.90;;;;;;4395471;32;20069;-69
2022/06/01 06:28:56;;;;;;;0.30;0.30;;;14.70;99.90;;;;;;4389579;32;20114;-69
2022/06/01 06:31:21;;;;;;;1.08;0.70;;;14.80;99.90;;;;;;4386789;32;20799;-68
2022/06/01 06:33:47;;;;;;;0.45;0.45;;;14.80;99.90;;;;;;4372277;32;20162;-69
2022/06/01 06:36:14;;;;;;;0.40;0.40;;;14.80;99.90;;;;;;4366848;32;20380;-70
2022/06/01 06:38:40;;;;;;;0.62;0.60;;;14.70;99.90;;;;;;4397638;32;20489;-69
2022/06/01 06:41:07;;;;;;;0.45;0.45;;;14.80;99.90;;;;;;4393522;32;20104;-70
2022/06/01 06:43:35;;;;;;;0.30;0.30;;;14.80;99.90;;;;;;4398639;32;20498;-70
2022/06/01 06:46:05;;;;;;;0.40;0.40;;;14.80;99.90;;;;;;4401677;32;20096;-70
2022/06/01 06:48:31;;;;;;;0.30;0.30;;;14.90;99.90;;;;;;4393524;32;20350;-69
2022/06/01 06:50:57;;;;;;;0.40;0.40;;;15.00;99.90;;;;;;4385390;32;20226;-69
2022/06/01 06:53:23;;;;;;;0.55;0.55;;;15.10;99.90;;;;;;4397881;32;20450;-69
2022/06/01 06:55:50;;;;;;;0.40;0.40;;;15.20;99.90;;;;;;4394119;32;21720;-69
2022/06/01 06:58:16;;;;;;;0.52;0.37;;;15.30;99.90;;;;;;4387702;32;20085;-70
2022/06/01 07:00:42;;;;;;;1.20;0.30;;;15.30;99.90;;;;;;4384866;32;20203;-70
2022/06/01 07:03:08;;;;;;;0.40;0.40;;;15.40;99.90;;;;;;4371492;32;20247;-70
2022/06/01 07:06:08;;;;;;;0.60;0.52;;;15.40;99.90;;;;;;4368253;32;20439;-68
2022/06/01 07:08:19;;;;;;;0.40;0.40;;;15.50;99.90;;;;;;4383294;32;20093;-69
2022/06/01 07:10:45;;;;;;;0.40;0.40;;;15.60;99.90;;;;;;4388562;32;20191;-70
2022/06/01 07:13:11;;;;;;;1.02;0.60;;;15.80;99.90;;;;;;4395777;32;20760;-69
2022/06/01 07:15:37;;;;;;;0.35;0.35;;;15.90;99.90;;;;;;4393252;32;20159;-70
2022/06/01 07:18:04;;;;;;;0.40;0.40;;;16.00;99.90;;;;;;4388720;32;20263;-70
2022/06/01 07:20:30;;;;;;;0.30;0.30;;;16.10;99.90;;;;;;4359981;32;20131;-70
2022/06/01 07:22:56;;;;;;;0.40;0.40;;;16.20;99.90;;;;;;4369511;32;20208;-69
2022/06/01 07:25:23;;;;;;;0.30;0.30;;;16.20;99.90;;;;;;4378944;32;20718;-69
2022/06/01 07:27:49;;;;;;;0.40;0.40;;;16.10;99.90;;;;;;4378050;32;20786;-69
2022/06/01 07:30:16;;;;;;;0.30;0.30;;;16.10;99.90;;;;;;4384531;32;20871;-70
2022/06/01 07:32:46;;;;;;;0.82;0.52;;;16.10;99.90;;;;;;4369590;32;20731;-69
2022/06/01 07:35:12;;;;;;;0.57;0.57;;;16.30;99.90;;;;;;4351671;32;20823;-70
2022/06/01 07:43:11;;;;;;;0.50;0.50;;;16.80;99.90;;;;;;4397342;32;20117;-70
2022/06/01 07:45:40;;;;;;;0.20;0.20;;;16.90;99.90;;;;;;4403906;32;20706;-70
2022/06/01 07:48:07;;;;;;;0.40;0.40;;;16.90;99.90;;;;;;4389281;32;20356;-70
2022/06/01 07:50:34;;;;;;;2.90;0.57;;;16.90;99.90;;;;;;4350316;32;20179;-69
2022/06/01 07:53:01;;;;;;;0.50;0.50;;;16.90;99.90;;;;;;4358258;32;20166;-69
2022/06/01 07:55:26;;;;;;;0.30;0.30;;;17.10;99.90;;;;;;4370403;32;20687;-70
2022/06/01 07:57:52;;;;;;;0.60;0.60;;;16.90;99.90;;;;;;4389567;32;20242;-69
2022/06/01 08:00:19;;;;;;;0.50;0.50;;;16.80;99.90;;;;;;4386992;32;20102;-70
2022/06/01 08:02:44;;;;;;;4.93;0.40;;;16.70;99.90;;;;;;4387623;32;20291;-70
2022/06/01 08:05:13;;;;;;;0.47;0.47;;;16.60;99.90;;;;;;4360817;32;20405;-70
2022/06/01 08:07:39;;;;;;;0.50;0.50;;;16.40;99.90;;;;;;4387369;32;20129;-70
2022/06/01 08:10:06;;;;;;;0.45;0.45;;;16.40;99.90;;;;;;4383946;32;20094;-70
2022/06/01 08:13:31;;;;;;;0.40;0.40;;;16.40;99.90;;;;;;4392160;32;20267;-69
2022/06/01 08:15:18;;;;;;;0.35;0.35;;;16.30;99.90;;;;;;4385933;32;20134;-71
2022/06/01 08:17:46;;;;;;;1.48;0.80;;;16.40;99.90;;;;;;4384731;32;20084;-69
2022/06/01 08:20:12;;;;;;;0.82;0.82;;;16.40;99.90;;;;;;4380185;32;20120;-69
2022/06/01 08:22:39;;;;;;;0.47;0.47;;;16.40;99.90;;;;;;4385639;32;20534;-70
2022/06/01 08:25:05;;;;;;;1.55;0.70;;;16.40;99.90;;;;;;4388043;32;20322;-71
2022/06/01 08:27:31;;;;;;;0.40;0.40;;;16.40;99.90;;;;;;4396446;32;20078;-71
2022/06/01 08:29:56;;;;;;;0.60;0.60;;;16.40;99.90;;;;;;4390367;32;20101;-71
2022/06/01 08:32:22;;;;;;;0.40;0.40;;;16.60;99.90;;;;;;4382345;32;21026;-72
2022/06/01 08:34:48;;;;;;;0.60;0.45;;;16.80;99.90;;;;;;4369332;32;20382;-71
2022/06/01 08:37:13;;;;;;;0.30;0.30;;;16.90;99.90;;;;;;4371255;32;20851;-71
2022/06/01 08:39:39;;;;;;;0.45;0.45;;;17.00;99.90;;;;;;4382717;32;20087;-71
2022/06/01 08:42:06;;;;;;;0.40;0.40;;;17.10;99.90;;;;;;4392721;32;20097;-71
2022/06/01 08:44:37;;;;;;;0.30;0.30;;;17.40;99.90;;;;;;4398028;32;20101;-70
2022/06/01 08:47:06;;;;;;;0.40;0.40;;;17.70;99.90;;;;;;4394101;32;20424;-70
2022/06/01 08:49:34;;;;;;;0.45;0.45;;;17.90;99.90;;;;;;4381394;32;20648;-70
2022/06/01 08:52:01;;;;;;;0.47;0.47;;;18.20;99.90;;;;;;4390995;32;20926;-71
2022/06/01 08:54:26;;;;;;;0.40;0.40;;;18.50;99.90;;;;;;4379799;32;20096;-70
2022/06/01 08:56:58;;;;;;;0.28;0.28;;;18.50;99.90;;;;;;4373146;32;20311;-70
2022/06/01 08:59:52;;;;;;;0.30;0.30;;;18.40;99.90;;;;;;4375503;32;20247;-69
2022/06/01 09:02:23;;;;;;;4.47;1.52;;;18.20;99.90;;;;;;4365515;32;20457;-70
2022/06/01 09:04:56;;;;;;;0.30;0.30;;;17.90;99.90;;;;;;4359492;32;20737;-69
2022/06/01 09:07:37;;;;;;;0.60;0.60;;;17.90;99.90;;;;;;4369607;32;20659;-69
2022/06/01 09:10:24;;;;;;;0.40;0.40;;;17.80;99.90;;;;;;4386957;32;20525;-70
2022/06/01 09:13:00;;;;;;;0.60;0.60;;;18.00;99.90;;;;;;4386700;32;21450;-70
2022/06/01 09:15:29;;;;;;;0.30;0.30;;;18.30;99.90;;;;;;4391832;32;20545;-69
2022/06/01 09:17:55;;;;;;;0.57;0.57;;;18.70;99.90;;;;;;4384198;32;20141;-70
2022/06/01 09:22:53;;;;;;;0.40;0.40;;;18.60;99.90;;;;;;4367542;32;20196;-70
2022/06/01 09:23:11;;;;;;;0.32;0.32;;;18.50;99.90;;;;;;4348616;32;21115;-70
2022/06/01 09:25:38;;;;;;;;;;;18.30;99.90;;;;;;4342532;32;20117;-71
2022/06/01 09:28:19;;;;;;;0.57;0.57;;;18.20;99.90;;;;;;4354909;32;20297;-68
2022/06/01 09:30:54;;;;;;;0.37;0.37;;;18.40;99.90;;;;;;4376227;32;20089;-69
2022/06/01 09:33:29;;;;;;;0.32;0.32;;;18.50;99.90;;;;;;4362930;32;20252;-70
2022/06/01 09:36:16;;;;;;;0.30;0.30;;;18.90;99.90;;;;;;4358201;32;20436;-70
2022/06/01 09:38:48;;;;;;;0.75;0.57;;;19.10;99.90;;;;;;4383428;32;20121;-69
2022/06/01 09:41:24;;;;;;;0.30;0.30;;;18.80;99.90;;;;;;4391218;32;21069;-70
2022/06/01 09:44:03;;;;;;;0.30;0.30;;;18.60;99.90;;;;;;4388114;32;20077;-70
2022/06/01 09:46:34;;;;;;;0.30;0.30;;;18.80;99.90;;;;;;4392420;32;20172;-69
2022/06/01 09:49:05;;;;;;;0.37;0.37;;;19.00;99.90;;;;;;4387560;32;20896;-70
2022/06/01 09:51:33;;;;;;;1.17;0.52;;;19.30;99.90;;;;;;4385557;32;20659;-70
2022/06/01 09:54:21;;;;;;;0.22;0.22;;;19.50;99.90;;;;;;4371231;32;20163;-69
2022/06/01 09:56:48;;;;;;;0.30;0.30;;;19.60;98.90;;;;;;4391127;32;21247;-69
2022/06/01 10:06:05;;;;;;;0.30;0.30;;;19.60;98.60;;;;;;4362819;32;20390;-70
2022/06/01 10:07:48;;;;;;;0.30;0.30;;;19.50;98.90;;;;;;4384121;32;20632;-70
2022/06/01 10:10:25;;;;;;;0.45;0.40;;;19.20;98.40;;;;;;4395586;32;20512;-69
2022/06/01 10:12:54;;;;;;;0.30;0.30;;;19.00;98.90;;;;;;4394106;32;20727;-70
2022/06/01 10:15:46;;;;;;;0.32;0.32;;;18.70;97.60;;;;;;4388961;32;20294;-71
2022/06/01 10:18:17;;;;;;;0.37;0.37;;;18.40;98.40;;;;;;4360972;32;20894;-69
2022/06/01 10:20:50;;;;;;;0.50;0.50;;;18.20;98.90;;;;;;4375747;32;20833;-69
2022/06/01 10:23:31;;;;;;;0.30;0.30;;;18.20;99.00;;;;;;4371493;32;20089;-68
2022/06/01 10:26:04;;;;;;;1.55;0.40;;;18.30;99.30;;;;;;4388159;32;20790;-69
2022/06/01 10:28:36;;;;;;;0.40;0.40;;;18.30;98.50;;;;;;4393342;32;20327;-66
2022/06/01 10:31:04;;;;;;;0.57;0.57;;;18.70;98.00;;;;;;4390822;32;20097;-69
2022/06/01 10:33:40;;;;;;;0.30;0.30;;;19.40;97.60;;;;;;4375980;32;20278;-68
2022/06/01 10:36:12;;;;;;;0.57;0.57;;;20.00;97.10;;;;;;4382601;32;20110;-69
2022/06/01 10:38:48;;;;;;;0.43;0.43;;;20.90;95.80;;;;;;4402229;32;20105;-69
2022/06/01 10:41:36;;;;;;;0.40;0.40;;;21.10;94.20;;;;;;4413813;32;21108;-69
2022/06/01 10:44:24;;;;;;;0.62;0.57;;;20.60;93.60;;;;;;4409066;32;20106;-69
2022/06/01 10:47:00;;;;;;;0.55;0.55;;;20.20;94.10;;;;;;4402169;32;20085;-68
2022/06/01 10:49:48;;;;;;;0.30;0.30;;;20.30;94.60;;;;;;4367461;32;20509;-68
2022/06/01 10:52:23;;;;;;;1.00;0.40;;;20.50;95.10;;;;;;4386645;32;20629;-68
2022/06/01 10:55:10;;;;;;;0.40;0.40;;;20.50;94.30;;;;;;4366934;32;20120;-68
2022/06/01 10:57:39;;;;;;;0.43;0.40;;;20.70;94.60;;;;;;4382257;32;20093;-67
2022/06/01 11:00:06;;;;;;;0.30;0.30;;;20.80;93.50;;;;;;4379731;32;20675;-68
2022/06/01 11:02:44;;;;;;;0.40;0.40;;;21.20;94.30;;;;;;4373714;32;20358;-69
2022/06/01 11:05:25;;;;;;;0.45;0.45;;;21.90;93.90;;;;;;4366670;32;20667;-67
2022/06/01 11:08:30;;;;;;;0.30;0.30;;;21.80;90.70;;;;;;4390555;32;20132;-68
2022/06/01 11:11:09;;;;;;;0.50;0.50;;;21.50;91.50;;;;;;4386916;32;20202;-68
2022/06/01 11:13:59;;;;;;;0.30;0.30;;;21.60;91.20;;;;;;4388766;32;20211;-68
2022/06/01 11:16:52;;;;;;;0.50;0.50;;;22.00;91.10;;;;;;4396227;32;20133;-68
2022/06/01 11:19:58;;;;;;;0.50;0.50;;;22.10;91.30;;;;;;4361289;32;20350;-68
2022/06/01 11:23:03;;;;;;;0.30;0.30;;;23.00;90.50;;;;;;4363458;32;20839;-68
2022/06/01 11:25:36;;;;;;;0.25;0.25;;;23.30;90.00;;;;;;4374979;32;20233;-67
2022/06/01 11:28:22;;;;;;;0.52;0.52;;;23.00;88.60;;;;;;4390851;32;20224;-68
2022/06/01 11:31:00;;;;;;;0.28;0.28;;;22.90;89.40;;;;;;4388686;32;20133;-68
2022/06/01 11:33:34;;;;;;;0.30;0.30;;;23.10;89.20;;;;;;4369048;32;20078;-68
2022/06/01 11:36:12;;;;;;;2.30;0.52;;;23.30;88.20;;;;;;4374006;32;20089;-68
2022/06/01 11:38:43;;;;;;;0.35;0.35;;;23.60;89.30;;;;;;4393167;32;21311;-68
2022/06/01 11:41:16;;;;;;;0.30;0.30;;;23.50;89.00;;;;;;4375170;32;20322;-68
2022/06/01 11:43:46;;;;;;;0.70;0.40;;;23.50;89.60;;;;;;4349155;32;20533;-68
2022/06/01 11:46:34;;;;;;;0.22;0.22;;;23.50;87.30;;;;;;4360235;32;22150;-69
2022/06/01 11:49:03;;;;;;;0.22;0.22;;;23.60;85.80;;;;;;4355401;32;20275;-68
2022/06/01 11:51:47;;;;;;;0.30;0.30;;;23.50;86.90;;;;;;4370909;32;20125;-68
2022/06/01 11:54:33;;;;;;;0.25;0.25;;;23.10;86.50;;;;;;4366057;32;20402;-68
2022/06/01 11:57:23;;;;;;;0.35;0.35;;;23.00;85.60;;;;;;4394422;32;20082;-69
2022/06/01 12:00:04;;;;;;;0.52;0.52;;;23.20;85.50;;;;;;4384833;32;20126;-69
2022/06/01 12:03:03;;;;;;;1.65;0.80;;;23.50;83.80;;;;;;4367577;32;21194;-68
2022/06/01 12:05:40;;;;;;;0.20;0.20;;;23.10;86.30;;;;;;4370788;32;20118;-69
2022/06/01 12:08:16;;;;;;;0.20;0.20;;;22.30;84.50;;;;;;4388993;32;20657;-69
2022/06/01 12:11:00;;;;;;;0.68;0.50;;;21.80;88.30;;;;;;4391125;32;20113;-68
2022/06/01 12:13:31;;;;;;;0.57;0.40;;;21.60;86.70;;;;;;4388350;32;20184;-68
2022/06/01 12:16:23;;;;;;;0.40;0.40;;;21.60;87.50;;;;;;4397169;32;20450;-68
2022/06/01 12:19:19;;;;;;;0.75;0.40;;;22.10;85.30;;;;;;4378812;32;20192;-69
2022/06/01 12:21:46;;;;;;;0.20;0.20;;;22.10;85.30;;;;;;4365584;32;20479;-69
2022/06/01 12:28:47;;;;;;;0.35;0.35;;;22.50;83.30;;;;;;4382558;32;20089;-68
2022/06/01 12:30:08;;;;;;;0.32;0.32;;;22.40;83.60;;;;;;4382102;32;20800;-68
2022/06/01 12:33:03;;;;;;;0.62;0.62;;;22.10;83.00;;;;;;4374458;32;20627;-68
2022/06/01 12:35:38;;;;;;;0.30;0.30;;;21.80;83.70;;;;;;4376427;32;20243;-68
2022/06/01 12:38:12;;;;;;;0.30;0.30;;;21.70;82.30;;;;;;4395504;32;20131;-68
2022/06/01 12:40:39;;;;;;;0.30;0.30;;;21.50;83.50;;;;;;4396670;32;21180;-68
2022/06/01 12:43:14;;;;;;;0.65;0.65;;;21.20;85.00;;;;;;4401221;32;20215;-68
2022/06/01 12:45:42;;;;;;;0.52;0.52;;;21.00;85.00;;;;;;4402313;32;20049;-68
2022/06/01 12:48:16;;;;;;;0.35;0.35;;;20.80;85.80;;;;;;4399030;32;20355;-68
2022/06/01 12:50:49;;;;;;;0.20;0.20;;;20.70;85.30;;;;;;4394339;32;20225;-68
2022/06/01 12:53:22;;;;;;;0.30;0.30;;;20.40;86.60;;;;;;4385661;32;20170;-68
2022/06/01 12:56:04;;;;;;;3.37;0.60;;;20.10;90.00;;;;;;4403707;32;20088;-67
2022/06/01 12:58:30;;;;;;;0.30;0.30;;;19.30;92.70;;;;;;4406386;32;21029;-68
2022/06/01 13:00:56;;;;;;;2.40;0.73;;;19.00;94.20;;;;;;4408982;32;20085;-68
2022/06/01 13:03:26;;;;;;;0.30;0.30;;;18.60;95.50;;;;;;4393728;32;20385;-68
2022/06/01 13:05:56;;;;;;;0.55;0.55;;;18.30;99.50;;;;;;4397093;32;20105;-68
2022/06/01 13:08:27;;;;;;;0.30;0.30;;;17.80;99.90;;;;;;4407721;32;20334;-67
2022/06/01 13:10:53;;;;;;;0.30;0.30;;;17.20;99.90;;;;;;4397925;32;20278;-67
2022/06/01 13:13:23;;;;;;;0.43;0.43;;;16.80;99.90;;;;;;4398452;32;20468;-67
2022/06/01 13:15:56;;;;;;;0.50;0.50;;;16.40;99.90;;;;;;4404152;32;20137;-67
2022/06/01 13:18:34;;;;;;;0.50;0.50;;;16.40;99.90;;;;;;4395164;32;20782;-67
2022/06/01 13:21:03;;;;;;;0.20;0.20;;;16.70;99.90;;;;;;4391697;32;20232;-67